createdAt,value
2022-11-11T00:00:05.735Z,77.21
2022-11-11T00:02:59.019Z,78.17
2022-11-11T00:05:42.872Z,78.71
2022-11-11T00:08:14.911Z,78.69
2022-11-11T00:10:47.538Z,78.48
2022-11-11T00:13:22.645Z,78.00
2022-11-11T00:15:55.252Z,79.05
2022-11-11T00:18:39.594Z,79.08
2022-11-11T00:21:44.543Z,77.65
2022-11-11T00:24:40.116Z,78.96
2022-11-11T00:27:13.183Z,78.77
2022-11-11T00:29:50.563Z,79.12
2022-11-11T00:32:27.991Z,78.52
2022-11-11T00:35:14.269Z,78.93
2022-11-11T00:37:49.320Z,78.87
2022-11-11T00:40:21.465Z,79.46
2022-11-11T00:42:54.492Z,79.24
2022-11-11T00:45:29.458Z,79.32
2022-11-11T00:48:14.285Z,80.00
2022-11-11T00:51:02.315Z,79.90
2022-11-11T00:53:37.752Z,80.24
2022-11-11T00:56:10.613Z,80.40
2022-11-11T00:58:43.095Z,80.26
2022-11-11T01:01:18.408Z,80.24
2022-11-11T01:03:51.053Z,80.04
2022-11-11T01:06:24.294Z,79.45
2022-11-11T01:08:56.688Z,79.70
2022-11-11T01:11:28.961Z,80.81
2022-11-11T01:14:01.556Z,80.96
2022-11-11T01:16:36.296Z,80.67
2022-11-11T01:19:08.916Z,79.67
2022-11-11T01:21:41.022Z,79.66
2022-11-11T01:24:14.110Z,79.92
2022-11-11T01:26:49.550Z,80.59
2022-11-11T01:29:22.228Z,79.63
2022-11-11T01:31:57.243Z,79.06
2022-11-11T01:34:30.282Z,79.82
2022-11-11T01:37:02.697Z,79.44
2022-11-11T01:39:35.451Z,79.35
2022-11-11T01:42:07.857Z,79.83
2022-11-11T01:44:46.722Z,79.45
2022-11-11T01:47:23.229Z,79.61
2022-11-11T01:49:58.521Z,79.48
2022-11-11T01:52:34.334Z,79.20
2022-11-11T01:55:11.260Z,79.32
2022-11-11T01:57:48.419Z,79.26
2022-11-11T02:00:23.079Z,78.53
2022-11-11T02:03:18.465Z,79.56
2022-11-11T02:08:45.656Z,79.20
2022-11-11T02:11:45.759Z,79.24
2022-11-11T02:14:29.736Z,78.99
2022-11-11T02:17:02.105Z,79.47
2022-11-11T02:19:45.329Z,79.61
2022-11-11T02:22:26.459Z,78.16
2022-11-11T02:25:02.124Z,78.77
2022-11-11T02:27:38.157Z,79.40
2022-11-11T02:30:15.984Z,79.44
2022-11-11T02:32:50.992Z,80.19
2022-11-11T02:35:25.243Z,80.20
2022-11-11T02:37:56.989Z,80.24
2022-11-11T02:40:38.553Z,79.53
2022-11-11T02:43:10.083Z,80.43
2022-11-11T02:45:44.131Z,79.91
2022-11-11T02:48:16.353Z,79.45
2022-11-11T02:50:47.796Z,79.33
2022-11-11T02:53:19.641Z,79.32
2022-11-11T02:55:56.127Z,79.55
2022-11-11T02:58:28.832Z,79.76
2022-11-11T03:01:00.617Z,79.19
2022-11-11T03:03:32.875Z,78.95
2022-11-11T03:06:05.151Z,78.68
2022-11-11T03:08:41.120Z,79.20
2022-11-11T03:11:15.217Z,79.02
2022-11-11T03:13:47.346Z,79.35
2022-11-11T03:16:32.365Z,79.29
2022-11-11T03:19:04.314Z,79.62
2022-11-11T03:24:47.707Z,79.05
2022-11-11T03:27:22.205Z,79.77
2022-11-11T03:29:54.071Z,78.14
2022-11-11T03:32:25.724Z,78.34
2022-11-11T03:34:57.597Z,79.15
2022-11-11T03:37:41.613Z,77.49
2022-11-11T03:40:15.486Z,78.57
2022-11-11T03:42:49.877Z,78.88
2022-11-11T03:45:22.312Z,78.75
2022-11-11T03:47:55.315Z,78.47
2022-11-11T03:50:27.838Z,79.25
2022-11-11T03:52:59.865Z,79.11
2022-11-11T03:55:32.783Z,78.33
2022-11-11T03:58:07.374Z,78.84
2022-11-11T04:00:39.784Z,79.46
2022-11-11T04:03:27.598Z,79.79
2022-11-11T04:06:12.234Z,79.95
2022-11-11T04:08:56.384Z,79.57
2022-11-11T04:11:32.072Z,79.53
2022-11-11T04:14:23.764Z,79.28
2022-11-11T04:16:56.582Z,80.09
2022-11-11T04:19:40.913Z,79.56
2022-11-11T04:22:13.583Z,78.88
2022-11-11T04:25:12.654Z,79.27
2022-11-11T04:27:44.994Z,79.49
2022-11-11T04:30:16.994Z,79.12
2022-11-11T04:33:14.904Z,80.56
2022-11-11T06:30:29.268Z,78.44
2022-11-11T06:32:59.913Z,78.03
2022-11-11T06:35:31.993Z,78.36
2022-11-11T06:38:04.112Z,78.54
2022-11-11T06:40:36.371Z,77.68
2022-11-11T06:43:08.433Z,77.57
2022-11-11T06:45:42.830Z,78.07
2022-11-11T06:48:15.619Z,78.55
2022-11-11T06:50:47.320Z,76.57
2022-11-11T06:53:24.218Z,77.03
2022-11-11T06:55:56.323Z,77.07
2022-11-11T06:58:29.438Z,76.59
2022-11-11T07:01:07.350Z,76.67
2022-11-11T07:03:39.707Z,76.82
2022-11-11T07:06:11.688Z,76.89
2022-11-11T07:08:44.939Z,75.61
2022-11-11T07:11:19.255Z,76.62
2022-11-11T07:13:51.636Z,76.76
2022-11-11T07:16:26.002Z,76.08
2022-11-11T07:18:58.277Z,75.39
2022-11-11T07:21:30.696Z,75.43
2022-11-11T07:24:02.675Z,75.31
2022-11-11T07:26:34.387Z,74.83
2022-11-11T07:29:06.508Z,75.16
2022-11-11T07:31:40.992Z,74.89
2022-11-11T07:34:13.365Z,75.09
2022-11-11T07:36:45.050Z,74.73
2022-11-11T07:39:17.667Z,75.25
2022-11-11T07:41:52.166Z,74.60
2022-11-11T07:44:24.051Z,74.42
2022-11-11T07:46:58.965Z,74.44
2022-11-11T07:49:31.090Z,74.36
2022-11-11T07:52:02.816Z,74.21
2022-11-11T07:54:34.892Z,73.67
2022-11-11T07:57:06.917Z,73.56
2022-11-11T07:59:39.389Z,73.40
2022-11-11T08:02:16.250Z,72.79
2022-11-11T08:04:53.790Z,72.72
2022-11-11T08:07:27.471Z,71.86
2022-11-11T08:09:59.659Z,71.99
2022-11-11T08:12:43.566Z,71.25
2022-11-11T08:15:15.916Z,71.89
2022-11-11T08:17:50.259Z,69.92
2022-11-11T08:20:22.489Z,69.80
2022-11-11T08:23:28.401Z,70.30
2022-11-11T08:25:47.959Z,69.15
2022-11-11T08:28:19.623Z,69.47
2022-11-11T08:30:51.915Z,70.17
2022-11-11T08:33:44.462Z,69.22
2022-11-11T08:36:20.675Z,69.10
2022-11-11T08:38:53.594Z,69.92
2022-11-11T08:41:28.350Z,68.62
2022-11-11T08:44:02.149Z,69.13
2022-11-11T08:46:36.266Z,67.79
2022-11-11T08:49:13.830Z,67.32
2022-11-11T08:51:46.629Z,66.91
2022-11-11T08:54:19.085Z,66.30
2022-11-11T08:56:51.829Z,66.98
2022-11-11T08:59:23.798Z,65.29
2022-11-11T09:01:56.552Z,65.91
2022-11-11T09:04:44.935Z,65.77
2022-11-11T09:07:29.837Z,65.64
2022-11-11T09:10:02.195Z,64.91
2022-11-11T09:12:34.518Z,65.94
2022-11-11T09:15:06.909Z,64.82
2022-11-11T09:17:39.902Z,64.63
2022-11-11T09:20:18.637Z,63.75
2022-11-11T09:22:57.876Z,64.38
2022-11-11T09:25:29.624Z,63.57
2022-11-11T09:28:04.217Z,62.35
2022-11-11T09:30:37.257Z,63.13
2022-11-11T09:33:09.940Z,62.57
2022-11-11T09:35:44.696Z,62.76
2022-11-11T09:38:18.168Z,62.12
2022-11-11T09:41:03.100Z,61.61
2022-11-11T09:43:44.999Z,61.51
2022-11-11T09:46:25.953Z,62.18
2022-11-11T09:49:14.430Z,61.38
2022-11-11T09:51:58.793Z,61.28
2022-11-11T09:54:38.391Z,61.12
2022-11-11T09:57:17.950Z,62.36
2022-11-11T09:59:55.552Z,62.90
2022-11-11T10:02:36.476Z,62.20
2022-11-11T10:05:14.486Z,61.55
2022-11-11T10:07:56.113Z,62.65
2022-11-11T10:10:38.232Z,61.24
2022-11-11T10:13:17.403Z,60.57
2022-11-11T10:15:58.714Z,59.63
2022-11-11T10:18:58.959Z,60.14
2022-11-11T10:22:05.770Z,61.30
2022-11-11T10:24:43.620Z,60.29
2022-11-11T10:27:21.798Z,59.16
2022-11-11T10:29:54.481Z,59.88
2022-11-11T10:32:30.308Z,59.85
2022-11-11T10:35:16.111Z,60.14
2022-11-11T10:37:49.419Z,60.24
2022-11-11T10:40:32.940Z,59.11
2022-11-11T10:43:05.541Z,58.72
2022-11-11T10:45:45.792Z,58.56
2022-11-11T10:48:22.962Z,59.11
2022-11-11T10:51:01.339Z,58.49
2022-11-11T10:53:42.502Z,57.62
2022-11-11T10:56:27.213Z,57.27
2022-11-11T10:59:05.809Z,58.55
2022-11-11T11:01:44.067Z,58.70
2022-11-11T11:04:24.948Z,57.88
2022-11-11T11:06:59.002Z,57.11
2022-11-11T11:09:38.547Z,56.34
2022-11-11T11:12:21.022Z,56.01
2022-11-11T11:14:58.272Z,56.36
2022-11-11T11:17:38.991Z,56.53
2022-11-11T11:20:15.144Z,57.65
2022-11-11T11:22:53.260Z,57.59
2022-11-11T11:25:26.743Z,56.08
2022-11-11T11:31:14.475Z,55.56
2022-11-11T11:33:56.210Z,56.25
2022-11-11T11:36:28.943Z,54.94
2022-11-11T11:39:01.506Z,55.90
2022-11-11T11:41:41.878Z,56.82
2022-11-11T11:44:37.811Z,56.00
2022-11-11T11:47:25.815Z,56.56
2022-11-11T11:50:15.628Z,55.64
2022-11-11T11:52:58.947Z,55.34
2022-11-11T11:55:38.919Z,56.06
2022-11-11T11:58:28.312Z,56.09
2022-11-11T12:01:14.924Z,56.75
2022-11-11T12:04:24.450Z,55.01
2022-11-11T12:07:08.031Z,55.79
2022-11-11T12:09:49.952Z,55.64
2022-11-11T12:12:32.039Z,56.64
2022-11-11T12:15:33.516Z,56.23
2022-11-11T12:18:30.823Z,56.29
2022-11-11T12:21:11.395Z,56.07
2022-11-11T12:24:05.720Z,57.18
2022-11-11T12:26:44.478Z,54.87
2022-11-11T12:29:36.476Z,54.51
2022-11-11T12:32:32.990Z,55.89
2022-11-11T12:35:24.355Z,54.58
2022-11-11T12:38:06.070Z,55.09
2022-11-11T12:40:47.070Z,55.34
2022-11-11T12:43:29.369Z,54.24
2022-11-11T12:46:09.349Z,56.01
2022-11-11T12:48:53.611Z,54.47
2022-11-11T12:51:41.183Z,55.12
2022-11-11T12:54:26.958Z,56.16
2022-11-11T12:57:05.318Z,55.30
2022-11-11T12:59:49.142Z,55.06
2022-11-11T13:02:41.984Z,55.25
2022-11-11T13:05:18.573Z,54.23
2022-11-11T13:08:37.728Z,55.29
2022-11-11T13:11:19.943Z,54.37
2022-11-11T13:14:07.347Z,54.96
2022-11-11T13:16:39.948Z,55.38
2022-11-11T13:19:21.729Z,55.91
2022-11-11T13:21:57.836Z,55.89
2022-11-11T13:24:32.513Z,55.20
2022-11-11T13:27:11.105Z,56.13
2022-11-11T13:30:07.748Z,56.89
2022-11-11T13:32:46.266Z,56.23
2022-11-11T13:35:25.547Z,56.38
2022-11-11T13:37:58.430Z,56.38
2022-11-11T13:40:43.452Z,55.69
2022-11-11T13:43:25.880Z,56.38
2022-11-11T13:45:59.902Z,56.52
2022-11-11T13:48:34.768Z,56.53
2022-11-11T13:51:27.150Z,55.01
2022-11-11T13:53:59.376Z,55.53
2022-11-11T13:56:36.552Z,56.54
2022-11-11T13:59:12.153Z,56.01
2022-11-11T14:01:44.465Z,57.24
2022-11-11T14:04:16.691Z,57.28
2022-11-11T14:06:58.337Z,57.28
2022-11-11T14:10:00.583Z,57.45
2022-11-11T14:12:43.447Z,57.78
2022-11-11T14:15:58.249Z,57.71
2022-11-11T14:18:46.043Z,58.47
2022-11-11T14:21:48.619Z,58.31
2022-11-11T14:24:29.136Z,58.68
2022-11-11T14:27:04.506Z,58.67
2022-11-11T14:29:40.663Z,58.66
2022-11-11T14:32:37.466Z,59.77
2022-11-11T14:35:30.595Z,60.50
2022-11-11T14:38:29.674Z,60.02
2022-11-11T14:41:21.756Z,59.84
2022-11-11T14:43:54.111Z,60.49
2022-11-11T14:46:26.185Z,61.43
2022-11-11T14:49:05.709Z,61.18
2022-11-11T14:51:54.541Z,60.95
2022-11-11T14:54:40.554Z,61.79
2022-11-11T14:57:24.876Z,61.73
2022-11-11T14:59:59.359Z,61.32
2022-11-11T15:02:39.886Z,61.99
2022-11-11T15:05:34.366Z,62.79
2022-11-11T15:08:17.786Z,62.34
2022-11-11T15:11:15.485Z,63.32
2022-11-11T15:14:22.452Z,63.03
2022-11-11T15:17:07.809Z,64.79
2022-11-11T15:19:57.487Z,63.65
2022-11-11T15:22:52.770Z,65.11
2022-11-11T15:25:40.697Z,64.58
2022-11-11T15:28:37.132Z,65.09
2022-11-11T15:31:19.632Z,64.86
2022-11-11T15:34:02.253Z,63.78
2022-11-11T15:36:45.685Z,65.16
2022-11-11T15:39:25.018Z,64.59
2022-11-11T15:41:58.632Z,65.45
2022-11-11T15:44:34.589Z,65.70
2022-11-11T15:47:07.611Z,66.46
2022-11-11T15:49:45.816Z,66.09
2022-11-11T15:52:32.266Z,65.38
2022-11-11T15:55:28.575Z,66.97
2022-11-11T15:58:13.089Z,66.93
2022-11-11T16:00:46.026Z,67.04
2022-11-11T16:03:21.369Z,67.81
2022-11-11T16:05:54.082Z,67.55
2022-11-11T16:08:26.770Z,67.35
2022-11-11T16:11:05.242Z,67.52
2022-11-11T16:13:41.716Z,68.76
2022-11-11T16:16:20.076Z,68.90
2022-11-11T16:18:56.476Z,68.70
2022-11-11T16:21:45.143Z,68.90
2022-11-11T16:24:30.669Z,69.07
2022-11-11T16:27:07.238Z,69.75
2022-11-11T16:29:42.223Z,69.01
2022-11-11T16:32:36.940Z,69.31
2022-11-11T16:35:29.914Z,70.73
2022-11-11T16:38:05.898Z,69.87
2022-11-11T16:40:47.336Z,70.48
2022-11-11T16:43:28.965Z,70.85
2022-11-11T16:46:04.598Z,71.32
2022-11-11T16:48:48.869Z,70.58
2022-11-11T16:51:26.048Z,71.47
2022-11-11T16:54:10.938Z,71.76
2022-11-11T16:56:47.488Z,71.68
2022-11-11T16:59:26.861Z,71.62
2022-11-11T17:01:58.584Z,72.22
2022-11-11T17:04:52.767Z,73.14
2022-11-11T17:07:33.359Z,72.08
2022-11-11T17:10:20.878Z,72.70
2022-11-11T17:12:53.039Z,72.92
2022-11-11T17:15:28.202Z,72.63
2022-11-11T17:18:06.207Z,73.41
2022-11-11T17:20:39.356Z,72.72
2022-11-11T17:23:16.107Z,73.77
2022-11-11T17:25:51.709Z,73.17
2022-11-11T17:28:30.366Z,73.64
2022-11-11T17:31:06.787Z,74.19
2022-11-11T17:33:38.608Z,75.02
2022-11-11T17:36:11.685Z,74.51
2022-11-11T17:38:43.567Z,74.48
2022-11-11T17:44:03.118Z,74.59
2022-11-11T17:46:37.380Z,74.45
2022-11-11T17:49:08.500Z,74.87
2022-11-11T17:51:40.359Z,74.90
2022-11-11T17:54:12.563Z,75.00
2022-11-11T17:56:46.154Z,74.92
2022-11-11T17:59:17.753Z,75.46
2022-11-11T18:01:52.401Z,74.55
2022-11-11T18:04:24.088Z,75.03
2022-11-11T18:06:56.382Z,74.25
2022-11-11T18:09:28.122Z,73.41
2022-11-11T18:12:00.120Z,74.84
2022-11-11T18:14:31.625Z,75.84
2022-11-11T18:17:08.223Z,75.69
2022-11-11T18:19:40.398Z,75.50
2022-11-11T18:22:12.400Z,75.65
2022-11-11T18:24:46.660Z,76.27
2022-11-11T18:27:19.446Z,76.35
2022-11-11T18:29:51.142Z,76.31
2022-11-11T18:32:25.937Z,76.21
2022-11-11T18:34:57.486Z,76.87
2022-11-11T18:37:29.492Z,76.54
2022-11-11T18:40:00.965Z,77.26
2022-11-11T18:42:33.970Z,77.51
2022-11-11T18:45:06.215Z,77.78
2022-11-11T18:47:40.644Z,77.45
2022-11-11T18:50:13.067Z,77.08
2022-11-11T18:52:47.879Z,77.61
2022-11-11T18:55:21.613Z,77.22
2022-11-11T18:57:58.785Z,78.26
2022-11-11T19:00:30.282Z,78.63
2022-11-11T19:03:05.114Z,77.93
2022-11-11T19:05:36.578Z,77.90
2022-11-11T19:08:08.819Z,78.46
2022-11-11T19:10:40.779Z,78.35
2022-11-11T19:13:12.742Z,78.70
2022-11-11T19:15:46.058Z,77.58
2022-11-11T19:18:26.179Z,78.36
2022-11-11T19:20:58.509Z,79.09
2022-11-11T19:23:32.814Z,79.08
2022-11-11T19:26:04.746Z,79.41
2022-11-11T19:28:40.005Z,79.75
2022-11-11T19:31:14.986Z,79.38
2022-11-11T19:33:54.318Z,78.98
2022-11-11T19:36:35.386Z,79.71
2022-11-11T19:39:08.304Z,79.78
2022-11-11T19:41:40.353Z,80.38
2022-11-11T19:44:15.466Z,80.51
2022-11-11T19:46:56.622Z,80.42
2022-11-11T19:49:33.021Z,80.38
2022-11-11T19:52:05.368Z,79.84
2022-11-11T19:54:37.759Z,79.92
2022-11-11T19:57:09.944Z,80.40
2022-11-11T19:59:42.634Z,79.92
2022-11-11T20:02:14.745Z,80.56
2022-11-11T20:04:50.005Z,80.60
2022-11-11T20:07:38.274Z,79.68
2022-11-11T20:10:14.062Z,80.02
2022-11-11T20:12:52.198Z,79.96
2022-11-11T20:15:24.689Z,79.75
2022-11-11T20:17:56.950Z,80.11
2022-11-11T20:20:35.441Z,79.71
2022-11-11T20:23:11.711Z,79.41
2022-11-11T20:25:46.028Z,79.57
2022-11-11T20:28:19.636Z,79.53
2022-11-11T20:30:52.571Z,80.01
2022-11-11T20:33:25.793Z,79.83
2022-11-11T20:36:04.309Z,80.11
2022-11-11T20:38:38.179Z,80.32
2022-11-11T20:41:15.980Z,80.23
2022-11-11T20:43:49.255Z,80.20
2022-11-11T20:46:36.215Z,79.80
2022-11-11T20:49:08.555Z,79.91
2022-11-11T20:51:45.520Z,80.57
2022-11-11T20:54:17.494Z,80.09
2022-11-11T20:56:51.318Z,80.01
2022-11-11T21:02:45.297Z,79.32
2022-11-11T21:05:17.319Z,79.79
2022-11-11T21:08:07.365Z,79.68
2022-11-11T21:10:51.097Z,80.00
2022-11-11T21:13:40.074Z,79.13
2022-11-11T21:16:37.297Z,79.25
2022-11-11T21:19:33.437Z,79.17
2022-11-11T21:22:10.108Z,79.06
2022-11-11T21:24:46.129Z,78.80
2022-11-11T21:27:20.166Z,78.69
2022-11-11T21:29:52.699Z,78.79
2022-11-11T21:32:24.504Z,78.93
2022-11-11T21:35:02.055Z,78.67
2022-11-11T21:37:47.340Z,78.82
2022-11-11T21:40:22.297Z,79.25
2022-11-11T21:42:58.148Z,79.05
2022-11-11T21:45:30.855Z,78.80
2022-11-11T21:48:05.252Z,79.19
2022-11-11T21:50:36.984Z,79.19
2022-11-11T21:53:08.652Z,79.36
2022-11-11T21:55:44.730Z,79.96
2022-11-11T21:58:16.992Z,80.03
2022-11-11T22:00:48.994Z,79.80
2022-11-11T22:03:20.513Z,79.69
2022-11-11T22:05:52.506Z,80.03
2022-11-11T22:08:24.308Z,79.44
2022-11-11T22:11:05.433Z,78.99
2022-11-11T22:13:38.160Z,79.78
2022-11-11T22:16:12.751Z,79.79
2022-11-11T22:18:48.032Z,80.04
2022-11-11T22:21:24.971Z,79.68
2022-11-11T22:23:58.966Z,79.73
2022-11-11T22:26:36.150Z,79.71
2022-11-11T22:29:08.556Z,79.21
2022-11-11T22:31:45.022Z,78.76
2022-11-11T22:34:22.130Z,79.22
2022-11-11T22:36:54.006Z,79.38
2022-11-11T22:39:35.214Z,79.37
2022-11-11T22:42:10.534Z,79.07
2022-11-11T22:44:42.101Z,79.53
2022-11-11T22:47:15.719Z,78.94
2022-11-11T22:49:47.624Z,79.69
2022-11-11T22:52:20.514Z,79.74
2022-11-11T22:54:52.103Z,80.12
2022-11-11T22:57:31.175Z,79.50
2022-11-11T23:00:02.801Z,79.85
2022-11-11T23:02:35.478Z,80.40
2022-11-11T23:05:07.923Z,80.07
2022-11-11T23:07:43.007Z,80.58
2022-11-11T23:10:16.215Z,80.58
2022-11-11T23:12:57.422Z,80.61
2022-11-11T23:15:32.465Z,80.35
2022-11-11T23:18:04.577Z,80.74
2022-11-11T23:20:38.339Z,80.46
2022-11-11T23:23:14.700Z,80.51
2022-11-11T23:25:48.721Z,80.78
2022-11-11T23:28:26.705Z,81.22
2022-11-11T23:31:06.164Z,81.28
2022-11-11T23:33:42.329Z,81.29
2022-11-11T23:36:19.710Z,80.73
2022-11-11T23:38:53.221Z,81.18
2022-11-11T23:41:27.867Z,80.86
2022-11-11T23:44:04.305Z,80.97
2022-11-11T23:46:36.261Z,81.31
2022-11-11T23:49:09.906Z,81.45
2022-11-11T23:51:44.106Z,81.32
2022-11-11T23:54:16.346Z,81.04
2022-11-11T23:56:48.431Z,81.38
2022-11-11T23:59:23.178Z,81.07
